createdAt,value
2022-12-01T00:01:14.632Z,77.92
2022-12-01T00:03:43.353Z,78.35
2022-12-01T00:06:12.457Z,77.52
2022-12-01T00:08:39.211Z,77.35
2022-12-01T00:11:08.107Z,77.74
2022-12-01T00:13:36.326Z,77.55
2022-12-01T00:16:15.357Z,78.38
2022-12-01T00:18:42.448Z,77.72
2022-12-01T00:21:15.770Z,78.59
2022-12-01T00:23:49.746Z,78.42
2022-12-01T00:26:17.764Z,77.99
2022-12-01T00:28:45.008Z,78.14
2022-12-01T00:31:13.622Z,78.48
2022-12-01T00:33:40.203Z,77.83
2022-12-01T00:36:07.692Z,78.58
2022-12-01T00:38:35.304Z,77.89
2022-12-01T00:41:02.813Z,79.05
2022-12-01T00:43:29.716Z,78.97
2022-12-01T00:45:56.786Z,77.91
2022-12-01T00:48:23.811Z,78.33
2022-12-01T00:50:52.331Z,78.72
2022-12-01T00:53:19.228Z,78.48
2022-12-01T00:55:46.028Z,78.34
2022-12-01T00:58:12.801Z,78.40
2022-12-01T01:00:42.475Z,78.00
2022-12-01T01:03:10.159Z,78.50
2022-12-01T01:05:40.786Z,77.98
2022-12-01T01:08:12.512Z,78.09
2022-12-01T01:10:40.532Z,78.91
2022-12-01T01:13:09.789Z,78.78
2022-12-01T01:15:37.971Z,79.34
2022-12-01T01:18:05.427Z,78.82
2022-12-01T01:20:35.602Z,79.02
2022-12-01T01:23:02.243Z,79.28
2022-12-01T01:25:28.808Z,78.80
2022-12-01T01:27:55.441Z,79.37
2022-12-01T01:30:23.551Z,78.38
2022-12-01T01:32:50.222Z,78.98
2022-12-01T01:35:16.831Z,78.69
2022-12-01T01:37:45.753Z,78.79
2022-12-01T01:40:12.575Z,78.44
2022-12-01T01:42:39.174Z,78.45
2022-12-01T01:45:20.219Z,78.54
2022-12-01T01:47:48.528Z,77.47
2022-12-01T01:50:18.478Z,78.26
2022-12-01T01:52:52.624Z,77.81
2022-12-01T01:55:19.740Z,79.12
2022-12-01T01:57:46.693Z,79.02
2022-12-01T02:00:18.559Z,78.29
2022-12-01T02:02:47.351Z,78.83
2022-12-01T02:05:21.326Z,78.06
2022-12-01T02:07:48.779Z,78.90
2022-12-01T02:10:22.630Z,78.62
2022-12-01T02:12:52.185Z,77.79
2022-12-01T02:15:42.348Z,78.31
2022-12-01T02:18:32.010Z,78.29
2022-12-01T02:21:10.735Z,77.90
2022-12-01T02:23:40.329Z,78.31
2022-12-01T02:26:17.532Z,77.86
2022-12-01T02:29:02.414Z,78.51
2022-12-01T02:31:49.674Z,78.01
2022-12-01T02:34:38.113Z,77.93
2022-12-01T02:37:14.766Z,78.09
2022-12-01T02:40:01.521Z,79.68
2022-12-01T02:42:59.327Z,78.23
2022-12-01T02:45:34.417Z,79.10
2022-12-01T02:48:05.907Z,79.00
2022-12-01T02:50:35.768Z,79.43
2022-12-01T02:53:08.092Z,79.40
2022-12-01T02:55:34.812Z,80.27
2022-12-01T02:58:01.490Z,80.31
2022-12-01T03:00:30.971Z,79.67
2022-12-01T03:03:15.631Z,80.69
2022-12-01T03:06:18.595Z,79.19
2022-12-01T03:09:09.215Z,79.76
2022-12-01T03:12:00.662Z,79.42
2022-12-01T03:14:45.743Z,79.56
2022-12-01T03:17:19.976Z,80.20
2022-12-01T03:19:53.763Z,80.12
2022-12-01T03:22:26.020Z,79.97
2022-12-01T03:24:55.825Z,79.84
2022-12-01T03:27:28.135Z,80.41
2022-12-01T03:29:58.114Z,79.16
2022-12-01T03:32:33.614Z,79.06
2022-12-01T03:35:19.642Z,80.45
2022-12-01T03:37:57.748Z,79.51
2022-12-01T03:40:29.585Z,79.26
2022-12-01T03:42:59.652Z,80.60
2022-12-01T03:45:31.733Z,80.03
2022-12-01T03:47:58.748Z,80.06
2022-12-01T03:50:33.494Z,80.37
2022-12-01T03:53:13.422Z,79.04
2022-12-01T03:55:44.235Z,79.39
2022-12-01T03:58:20.507Z,80.09
2022-12-01T04:00:50.712Z,79.68
2022-12-01T04:03:23.054Z,79.44
2022-12-01T04:05:49.739Z,79.90
2022-12-01T04:08:17.113Z,79.89
2022-12-01T04:10:43.833Z,79.75
2022-12-01T16:56:01.188Z,81.14
2022-12-01T16:58:28.167Z,82.44
2022-12-01T17:00:54.928Z,82.16
2022-12-01T17:03:28.027Z,82.98
2022-12-01T17:05:59.250Z,82.94
2022-12-01T17:08:26.050Z,83.56
2022-12-01T17:10:54.837Z,84.42
2022-12-01T17:13:25.555Z,83.90
2022-12-01T17:15:54.262Z,84.88
2022-12-01T17:18:23.065Z,85.19
2022-12-01T17:21:00.914Z,84.87
2022-12-01T17:23:29.828Z,84.73
2022-12-01T17:25:56.711Z,85.52
2022-12-01T17:28:23.334Z,85.94
2022-12-01T17:30:50.135Z,85.99
2022-12-01T17:33:16.863Z,85.70
2022-12-01T17:35:43.587Z,85.35
2022-12-01T17:38:10.367Z,85.57
2022-12-01T17:40:37.155Z,85.12
2022-12-01T17:43:03.757Z,85.20
2022-12-01T17:45:30.400Z,84.45
2022-12-01T17:47:57.100Z,84.99
2022-12-01T17:50:23.682Z,84.84
2022-12-01T17:52:50.312Z,84.71
2022-12-01T17:55:19.664Z,84.84
2022-12-01T17:57:46.292Z,84.73
2022-12-01T18:00:14.728Z,84.87
2022-12-01T18:02:41.359Z,84.63
2022-12-01T18:05:08.405Z,84.81
2022-12-01T18:07:36.751Z,84.21
2022-12-01T18:10:03.965Z,84.06
2022-12-01T18:12:33.449Z,84.24
2022-12-01T18:15:00.030Z,84.21
2022-12-01T18:17:26.886Z,84.55
2022-12-01T18:19:53.560Z,84.25
2022-12-01T18:22:21.172Z,83.71
2022-12-01T18:24:48.082Z,84.23
2022-12-01T18:27:14.961Z,84.31
2022-12-01T18:29:42.451Z,83.28
2022-12-01T18:32:09.122Z,83.90
2022-12-01T18:34:35.739Z,83.27
2022-12-01T18:37:04.175Z,83.40
2022-12-01T18:39:30.774Z,83.45
2022-12-01T18:41:57.608Z,82.85
2022-12-01T18:44:25.110Z,83.91
2022-12-01T18:46:54.072Z,84.12
2022-12-01T18:49:20.947Z,83.26
2022-12-01T18:51:48.227Z,83.77
2022-12-01T18:54:17.238Z,83.50
2022-12-01T18:56:45.769Z,83.21
2022-12-01T18:59:13.873Z,82.37
2022-12-01T19:01:48.656Z,82.73
2022-12-01T19:04:17.275Z,83.42
2022-12-01T19:06:52.708Z,82.53
2022-12-01T19:09:22.304Z,83.04
2022-12-01T19:11:49.308Z,82.76
2022-12-01T19:14:22.049Z,83.33
2022-12-01T19:16:58.827Z,82.21
2022-12-01T19:19:26.368Z,82.07
2022-12-01T19:21:54.016Z,82.55
2022-12-01T19:24:23.281Z,81.76
2022-12-01T19:26:49.847Z,82.19
2022-12-01T19:29:16.684Z,82.27
2022-12-01T19:31:43.752Z,82.07
2022-12-01T19:34:13.605Z,82.41
2022-12-01T19:36:40.199Z,82.36
2022-12-01T19:39:07.844Z,82.35
2022-12-01T19:41:34.882Z,81.54
2022-12-01T19:44:02.260Z,81.15
2022-12-01T19:46:29.024Z,82.31
2022-12-01T19:49:00.212Z,81.19
2022-12-01T19:51:30.481Z,81.08
2022-12-01T19:53:58.474Z,81.29
2022-12-01T19:56:28.166Z,81.24
2022-12-01T19:58:55.982Z,82.14
2022-12-01T20:01:22.813Z,81.12
2022-12-01T20:03:51.476Z,81.85
2022-12-01T20:06:21.587Z,81.76
2022-12-01T20:08:48.619Z,81.20
2022-12-01T20:11:15.515Z,80.77
2022-12-01T20:13:45.017Z,81.59
2022-12-01T20:16:18.101Z,81.32
2022-12-01T20:18:47.332Z,80.87
2022-12-01T20:21:19.317Z,81.53
2022-12-01T20:23:51.492Z,81.49
2022-12-01T20:26:19.696Z,81.06
2022-12-01T20:28:49.034Z,81.39
2022-12-01T20:31:22.724Z,81.02
2022-12-01T20:33:50.701Z,81.92
2022-12-01T20:36:17.458Z,80.74
2022-12-01T20:38:44.145Z,80.82
2022-12-01T20:41:11.574Z,80.90
2022-12-01T20:43:38.422Z,80.66
2022-12-01T20:46:05.450Z,80.46
2022-12-01T20:48:32.940Z,80.72
2022-12-01T20:51:01.119Z,81.44
2022-12-01T20:53:28.375Z,81.31
2022-12-01T20:55:55.783Z,81.95
2022-12-01T20:58:22.459Z,81.80
2022-12-01T21:00:49.307Z,81.15
2022-12-01T21:03:15.883Z,81.22
2022-12-01T21:05:43.502Z,81.23
2022-12-01T21:08:13.937Z,80.88
2022-12-01T21:10:47.031Z,81.00
2022-12-01T21:13:42.813Z,80.95
2022-12-01T21:16:14.580Z,80.71
2022-12-01T21:19:08.078Z,81.16
2022-12-01T21:21:43.715Z,81.01
2022-12-01T21:24:21.204Z,81.07
2022-12-01T21:26:58.687Z,80.51
2022-12-01T21:29:39.420Z,81.39
2022-12-01T21:32:23.164Z,80.66
2022-12-01T21:34:50.202Z,80.67
2022-12-01T21:37:23.015Z,80.65
2022-12-01T21:39:57.711Z,80.49
2022-12-01T21:42:30.488Z,80.21
2022-12-01T21:44:57.683Z,80.37
2022-12-01T21:47:27.445Z,79.63
2022-12-01T21:49:56.899Z,79.60
2022-12-01T21:52:30.916Z,79.63
2022-12-01T21:55:08.965Z,79.00
2022-12-01T21:57:52.470Z,79.19
2022-12-01T22:00:36.830Z,79.50
2022-12-01T22:03:09.179Z,79.35
2022-12-01T22:05:41.505Z,78.90
2022-12-01T22:08:50.831Z,79.19
2022-12-01T22:11:23.151Z,79.13
2022-12-01T22:13:49.678Z,78.57
2022-12-01T22:16:22.498Z,78.67
2022-12-01T22:19:25.092Z,78.73
2022-12-01T22:22:02.497Z,78.44
2022-12-01T22:24:46.679Z,79.13
2022-12-01T22:27:23.341Z,78.55
2022-12-01T22:29:52.287Z,78.06
2022-12-01T22:32:44.196Z,78.89
2022-12-01T22:35:23.070Z,78.54
2022-12-01T22:41:05.989Z,77.85
2022-12-01T22:43:46.656Z,77.11
2022-12-01T22:46:29.432Z,77.21
2022-12-01T22:48:59.707Z,77.09
2022-12-01T22:51:29.514Z,76.64
2022-12-01T22:54:18.305Z,76.95
2022-12-01T22:56:48.935Z,76.81
2022-12-01T22:59:15.536Z,77.51
2022-12-01T23:01:48.678Z,77.58
2022-12-01T23:04:26.505Z,77.62
2022-12-01T23:07:17.991Z,76.98
2022-12-01T23:09:44.747Z,77.53
2022-12-01T23:12:11.242Z,77.47
2022-12-01T23:14:44.622Z,77.29
2022-12-01T23:17:16.617Z,77.06
2022-12-01T23:19:43.251Z,77.48
2022-12-01T23:22:11.034Z,77.43
2022-12-01T23:24:38.878Z,78.00
2022-12-01T23:27:06.606Z,77.96
2022-12-01T23:29:35.415Z,77.59
2022-12-01T23:32:02.093Z,78.70
2022-12-01T23:34:29.022Z,78.07
2022-12-01T23:36:56.600Z,77.94
2022-12-01T23:39:31.975Z,77.65
2022-12-01T23:41:59.580Z,77.88
2022-12-01T23:44:29.128Z,78.11
2022-12-01T23:46:57.782Z,78.56
2022-12-01T23:49:30.846Z,78.22
2022-12-01T23:52:01.128Z,78.36
2022-12-01T23:54:32.672Z,77.99
2022-12-01T23:57:24.283Z,77.79
2022-12-01T23:59:55.151Z,78.05
